Chula, Missouri
Current Conditions -  °F | °C
As of 2:55 AM on Friday 31 Oct 2014 (Local Time) from KIRK Reporting Station
Overcast Overcast  
Wind Chill: 42°   Ceiling: 3000
Heat Index: 49°   Visibility: 10mi
Dew Point: 39°   Wind: 18mph
Humidity: 69%   Direction: 340°NNW
Pressure: 30.21"   Gusts: 24mph
Location:  39.92°N, 93.47°W
Report Text: KIRK 310755Z AUTO 34016G21KT 10SM BKN030 OVC042 09/04 A3021 RMK AO2 PK WND 01027/0659 SLP233 T00940039
Loading
Personal Weather Stations






























Interactive Weather Map
Tropical Storm Tracking
New forecast layout! Learn more

10-Day Weather Forecast

Advertisements
Track Severe Weather on mobile